Time;durP1;ratioP1;P1;durP2;ratioP2;P2;SDS_P1;SDS_P2;PMS_P1;PMS_P2;Temp;Humidity;BMP_temperature;BMP_pressure;BME280_temperature;BME280_humidity;BME280_pressure;Samples;Min_cycle;Max_cycle;Signal;HPM_P1;HPM_P2
2021/09/04 00:01:15;;;;;;;1.70;1.17;;;23.00;47.20;;;;;;4781124;29;20498;-69
2021/09/04 00:03:43;;;;;;;1.30;1.20;;;23.00;47.20;;;;;;4791160;29;20055;-71
2021/09/04 00:06:10;;;;;;;1.13;1.02;;;23.00;47.20;;;;;;4782081;29;20126;-71
2021/09/04 00:08:38;;;;;;;0.98;0.98;;;23.00;47.20;;;;;;4784010;29;20098;-70
2021/09/04 00:11:05;;;;;;;1.40;1.30;;;23.00;47.20;;;;;;4782483;29;20134;-69
2021/09/04 00:13:32;;;;;;;0.82;0.82;;;23.00;47.20;;;;;;4774300;29;20121;-70
2021/09/04 00:15:59;;;;;;;1.38;1.30;;;23.00;47.20;;;;;;4783681;29;20061;-70
2021/09/04 00:18:30;;;;;;;0.98;0.98;;;23.00;47.20;;;;;;4783435;29;20055;-70
2021/09/04 00:20:58;;;;;;;4.55;1.45;;;23.00;47.30;;;;;;4783338;29;20091;-70
2021/09/04 00:23:25;;;;;;;1.42;1.33;;;22.90;47.30;;;;;;4773441;29;20059;-70
2021/09/04 00:25:52;;;;;;;1.83;1.33;;;22.90;47.30;;;;;;4783169;29;20567;-70
2021/09/04 00:28:19;;;;;;;1.08;1.08;;;22.90;47.30;;;;;;4782895;29;20058;-69
2021/09/04 00:30:47;;;;;;;0.85;0.85;;;22.90;47.30;;;;;;4782311;29;20130;-70
2021/09/04 00:33:14;;;;;;;1.52;1.23;;;22.90;47.40;;;;;;4771443;29;20055;-69
2021/09/04 00:35:41;;;;;;;0.98;0.88;;;22.90;47.40;;;;;;4782623;29;20082;-70
2021/09/04 00:38:08;;;;;;;1.02;0.93;;;22.90;47.40;;;;;;4782812;29;20147;-70
2021/09/04 00:40:35;;;;;;;2.42;1.00;;;22.90;47.40;;;;;;4782936;29;20138;-69
2021/09/04 00:43:02;;;;;;;1.05;1.05;;;22.90;47.40;;;;;;4772866;29;20585;-70
2021/09/04 00:45:30;;;;;;;1.17;1.08;;;22.90;47.40;;;;;;4781736;29;20546;-70
2021/09/04 00:48:00;;;;;;;0.90;0.90;;;22.90;47.40;;;;;;4782742;29;20089;-69
2021/09/04 00:50:29;;;;;;;1.02;1.02;;;22.90;47.50;;;;;;4781814;29;20479;-70
2021/09/04 00:52:57;;;;;;;1.10;1.10;;;22.90;47.50;;;;;;4772594;29;20143;-70
2021/09/04 00:55:25;;;;;;;0.90;0.90;;;22.90;47.50;;;;;;4782681;29;20057;-69
2021/09/04 00:57:53;;;;;;;1.15;1.15;;;22.90;47.50;;;;;;4782689;29;20095;-71
2021/09/04 01:00:21;;;;;;;1.30;1.20;;;22.90;47.50;;;;;;4781282;29;20502;-70
2021/09/04 01:02:48;;;;;;;1.02;0.98;;;22.90;47.50;;;;;;4771989;29;20531;-69
2021/09/04 01:05:15;;;;;;;1.02;0.95;;;22.90;47.50;;;;;;4782897;29;20048;-70
2021/09/04 01:07:43;;;;;;;0.98;0.98;;;22.90;47.50;;;;;;4782440;29;20056;-70
2021/09/04 01:10:11;;;;;;;1.38;1.27;;;22.90;47.50;;;;;;4783023;29;20163;-70
2021/09/04 01:12:39;;;;;;;1.10;1.10;;;22.90;47.60;;;;;;4772593;29;20146;-68
2021/09/04 01:15:08;;;;;;;0.90;0.90;;;22.90;47.50;;;;;;4782351;29;20134;-70
2021/09/04 01:17:36;;;;;;;0.98;0.98;;;22.80;47.50;;;;;;4782498;29;20138;-70
2021/09/04 01:20:05;;;;;;;1.13;1.02;;;22.90;47.60;;;;;;4782738;29;20059;-70
2021/09/04 01:22:33;;;;;;;1.30;1.10;;;22.90;47.60;;;;;;4771259;29;20520;-70
2021/09/04 01:25:06;;;;;;;1.05;0.98;;;22.80;47.50;;;;;;4783758;29;20063;-70
2021/09/04 01:27:38;;;;;;;1.40;1.17;;;22.80;47.60;;;;;;4786437;29;20052;-70
2021/09/04 01:30:07;;;;;;;1.00;1.00;;;22.80;47.60;;;;;;4786201;29;20142;-70
2021/09/04 01:32:34;;;;;;;1.30;1.23;;;22.80;47.60;;;;;;4775335;29;20055;-70
2021/09/04 01:35:10;;;;;;;1.20;1.10;;;22.80;47.60;;;;;;4785341;29;20075;-70
2021/09/04 01:37:38;;;;;;;0.80;0.80;;;22.80;47.60;;;;;;4785995;29;20917;-70
2021/09/04 01:40:09;;;;;;;1.17;1.10;;;22.90;47.60;;;;;;4785778;29;20051;-69
2021/09/04 01:42:36;;;;;;;1.25;1.15;;;22.90;47.60;;;;;;4775717;29;20982;-69
2021/09/04 01:45:04;;;;;;;1.17;1.17;;;22.80;47.50;;;;;;4785964;29;20119;-70
2021/09/04 01:47:33;;;;;;;1.02;1.02;;;22.90;47.50;;;;;;4785707;29;20070;-70
2021/09/04 01:50:00;;;;;;;1.23;1.13;;;22.90;47.60;;;;;;4785637;29;20398;-71
2021/09/04 01:52:27;;;;;;;1.65;1.55;;;22.90;47.60;;;;;;4776270;29;20520;-69
2021/09/04 01:54:54;;;;;;;1.00;1.00;;;22.90;47.50;;;;;;4784212;29;20433;-70
2021/09/04 01:57:21;;;;;;;1.10;1.00;;;22.90;47.50;;;;;;4785807;29;20486;-70
2021/09/04 01:59:48;;;;;;;1.60;1.08;;;22.90;47.50;;;;;;4784533;29;20223;-69
2021/09/04 02:02:16;;;;;;;1.05;1.00;;;22.90;47.60;;;;;;4778098;29;20153;-69
2021/09/04 02:04:44;;;;;;;1.20;1.10;;;22.90;47.60;;;;;;4782282;29;20055;-70
2021/09/04 02:07:11;;;;;;;0.95;0.95;;;22.80;47.60;;;;;;4784259;29;20134;-70
2021/09/04 02:09:38;;;;;;;0.80;0.80;;;22.80;47.60;;;;;;4785093;29;20134;-70
2021/09/04 02:12:06;;;;;;;1.10;1.00;;;22.80;47.60;;;;;;4778184;29;20454;-70
2021/09/04 02:14:33;;;;;;;1.00;1.00;;;22.80;47.60;;;;;;4781059;29;20086;-70
2021/09/04 02:17:00;;;;;;;1.00;0.90;;;22.80;47.60;;;;;;4785827;29;20094;-70
2021/09/04 02:19:27;;;;;;;1.20;1.10;;;22.80;47.70;;;;;;4783842;30;20142;-70
2021/09/04 02:21:55;;;;;;;1.05;0.95;;;22.80;47.70;;;;;;4779082;29;20101;-69
2021/09/04 02:24:22;;;;;;;0.95;0.95;;;22.80;47.70;;;;;;4782050;29;20058;-70
2021/09/04 02:26:50;;;;;;;1.02;1.00;;;22.80;47.70;;;;;;4785398;29;20051;-70
2021/09/04 02:29:17;;;;;;;1.35;1.25;;;22.80;47.70;;;;;;4785001;29;20112;-70
2021/09/04 02:31:44;;;;;;;1.00;1.00;;;22.80;47.70;;;;;;4779534;29;20142;-69
2021/09/04 02:34:11;;;;;;;0.88;0.88;;;22.80;47.70;;;;;;4778091;30;20078;-70
2021/09/04 02:36:38;;;;;;;0.82;0.82;;;22.80;47.70;;;;;;4784161;29;20417;-70
2021/09/04 02:39:07;;;;;;;1.10;1.00;;;22.80;47.70;;;;;;4785257;29;20089;-70
2021/09/04 02:41:34;;;;;;;1.33;1.23;;;22.80;47.70;;;;;;4779256;29;20063;-69
2021/09/04 02:44:02;;;;;;;1.02;0.93;;;22.80;47.80;;;;;;4777154;30;20051;-70
2021/09/04 02:46:29;;;;;;;2.28;1.67;;;22.80;47.80;;;;;;4784844;29;20138;-70
2021/09/04 02:48:56;;;;;;;1.00;0.93;;;22.80;47.80;;;;;;4784861;29;20403;-70
2021/09/04 02:51:23;;;;;;;1.30;1.20;;;22.80;47.80;;;;;;4780314;29;20055;-69
2021/09/04 02:53:50;;;;;;;1.17;1.15;;;22.80;47.80;;;;;;4778496;29;20055;-70
2021/09/04 02:56:17;;;;;;;1.15;1.08;;;22.80;47.80;;;;;;4784501;29;20051;-70
2021/09/04 02:58:44;;;;;;;1.35;1.25;;;22.80;47.80;;;;;;4784639;29;20145;-70
2021/09/04 03:01:12;;;;;;;0.85;0.85;;;22.80;48.40;;;;;;4782595;29;20083;-70
2021/09/04 03:03:39;;;;;;;1.33;1.23;;;22.80;47.90;;;;;;4778382;29;20086;-69
2021/09/04 03:06:06;;;;;;;1.17;1.10;;;22.80;47.80;;;;;;4784343;29;20138;-70
2021/09/04 03:08:35;;;;;;;1.30;1.20;;;22.70;47.80;;;;;;4784909;29;20059;-70
2021/09/04 03:11:05;;;;;;;0.80;0.80;;;22.80;47.80;;;;;;4784190;29;20048;-69
2021/09/04 03:13:33;;;;;;;0.88;0.88;;;22.70;47.90;;;;;;4774038;29;20560;-70
2021/09/04 03:16:00;;;;;;;1.13;0.98;;;22.70;47.80;;;;;;4784087;29;20158;-70
2021/09/04 03:18:27;;;;;;;1.27;1.00;;;22.70;47.90;;;;;;4784057;29;20057;-70
2021/09/04 03:20:54;;;;;;;1.30;1.00;;;22.70;47.90;;;;;;4784352;29;20501;-70
2021/09/04 03:23:21;;;;;;;1.45;0.90;;;22.70;47.90;;;;;;4773621;29;20146;-70
2021/09/04 03:25:48;;;;;;;1.27;1.20;;;22.70;48.40;;;;;;4783905;29;20417;-70
2021/09/04 03:28:16;;;;;;;1.00;1.00;;;22.70;47.80;;;;;;4784267;29;20462;-72
2021/09/04 03:30:44;;;;;;;1.02;0.90;;;22.80;47.80;;;;;;4783694;29;20081;-70
2021/09/04 03:33:11;;;;;;;0.90;0.90;;;22.80;47.80;;;;;;4773333;29;20093;-69
2021/09/04 03:35:38;;;;;;;0.70;0.68;;;22.80;47.70;;;;;;4783621;29;20057;-70
2021/09/04 03:38:05;;;;;;;0.73;0.73;;;22.80;47.70;;;;;;4782940;30;20157;-70
2021/09/04 03:40:33;;;;;;;0.90;0.90;;;22.80;47.70;;;;;;4784191;29;20062;-70
2021/09/04 03:43:00;;;;;;;0.70;0.70;;;22.80;47.70;;;;;;4771977;29;20051;-69
2021/09/04 03:45:27;;;;;;;1.10;1.00;;;22.80;47.70;;;;;;4783551;29;20078;-70
2021/09/04 03:47:54;;;;;;;1.10;1.00;;;22.80;47.70;;;;;;4783682;29;20059;-69
2021/09/04 03:50:21;;;;;;;1.13;1.13;;;22.80;47.80;;;;;;4783503;29;20093;-70
2021/09/04 03:52:48;;;;;;;1.10;1.10;;;22.80;47.80;;;;;;4756570;29;20069;-69
2021/09/04 03:55:15;;;;;;;0.98;0.98;;;22.70;47.70;;;;;;4783232;29;20122;-70
2021/09/04 03:57:42;;;;;;;1.20;1.10;;;22.80;47.80;;;;;;4783593;29;20798;-70
2021/09/04 04:00:10;;;;;;;0.88;0.88;;;22.80;47.80;;;;;;4783426;29;20134;-70
2021/09/04 04:02:37;;;;;;;0.95;0.95;;;22.70;47.80;;;;;;4772812;29;20055;-69
2021/09/04 04:05:05;;;;;;;0.80;0.80;;;22.70;47.80;;;;;;4796869;29;20059;-70
2021/09/04 04:07:33;;;;;;;1.38;0.80;;;22.70;47.80;;;;;;4782871;29;20129;-70
2021/09/04 04:10:00;;;;;;;1.30;1.10;;;22.70;47.90;;;;;;4782305;29;20059;-70
2021/09/04 04:12:28;;;;;;;1.17;1.08;;;22.70;47.90;;;;;;4774223;29;20079;-69
2021/09/04 04:14:55;;;;;;;0.93;0.65;;;22.70;47.90;;;;;;4783472;29;20047;-70
2021/09/04 04:17:22;;;;;;;1.05;0.98;;;22.70;47.90;;;;;;4783374;29;20089;-69
2021/09/04 04:19:49;;;;;;;1.05;1.05;;;22.70;47.90;;;;;;4783151;29;20059;-70
2021/09/04 04:22:19;;;;;;;0.80;0.80;;;22.70;47.90;;;;;;4775731;29;20091;-69
2021/09/04 04:24:46;;;;;;;0.73;0.73;;;22.70;47.90;;;;;;4780182;29;20059;-70
2021/09/04 04:27:13;;;;;;;1.00;1.00;;;22.70;47.80;;;;;;4783295;29;20051;-70
2021/09/04 04:29:41;;;;;;;0.70;0.70;;;22.70;47.80;;;;;;4783103;29;20083;-70
2021/09/04 04:32:08;;;;;;;1.25;1.15;;;22.80;47.90;;;;;;4775743;29;20150;-70
2021/09/04 04:34:35;;;;;;;1.52;1.00;;;22.80;47.80;;;;;;4779054;30;20055;-70
2021/09/04 04:37:02;;;;;;;1.10;1.00;;;22.70;47.80;;;;;;4782606;29;20051;-70
2021/09/04 04:39:29;;;;;;;0.90;0.90;;;22.80;47.80;;;;;;4783263;29;20457;-70
2021/09/04 04:41:56;;;;;;;0.70;0.70;;;22.80;47.80;;;;;;4775231;29;20090;-69
2021/09/04 04:44:23;;;;;;;0.90;0.90;;;22.80;47.80;;;;;;4780274;29;20116;-70
2021/09/04 04:46:51;;;;;;;0.75;0.75;;;22.80;47.70;;;;;;4782459;29;20055;-70
2021/09/04 04:49:18;;;;;;;0.90;0.90;;;22.80;47.70;;;;;;4783020;29;20059;-69
2021/09/04 04:51:45;;;;;;;0.90;0.90;;;22.80;47.70;;;;;;4777739;29;20090;-69
2021/09/04 04:54:13;;;;;;;1.05;1.05;;;22.80;47.70;;;;;;4780006;29;20145;-70
2021/09/04 04:56:40;;;;;;;0.93;0.93;;;22.80;47.70;;;;;;4782540;29;20476;-70
2021/09/04 04:59:07;;;;;;;1.17;1.17;;;22.80;47.60;;;;;;4782412;29;20520;-70
2021/09/04 05:01:34;;;;;;;1.30;1.20;;;22.90;47.60;;;;;;4778204;29;20512;-71
2021/09/04 05:04:05;;;;;;;0.93;0.93;;;22.80;47.60;;;;;;4776826;29;20062;-69
2021/09/04 05:06:32;;;;;;;1.30;1.20;;;22.90;47.60;;;;;;4782686;29;20058;-70
2021/09/04 05:08:59;;;;;;;1.00;0.98;;;22.90;47.60;;;;;;4783043;29;20059;-70
2021/09/04 05:11:26;;;;;;;0.82;0.82;;;22.80;47.40;;;;;;4777284;29;20521;-69
2021/09/04 05:13:53;;;;;;;1.00;1.00;;;22.80;47.40;;;;;;4776489;29;20495;-70
2021/09/04 05:16:20;;;;;;;0.82;0.82;;;22.80;47.30;;;;;;4782788;29;20158;-70
2021/09/04 05:18:48;;;;;;;1.05;0.95;;;22.80;47.30;;;;;;4782793;29;20225;-69
2021/09/04 05:21:15;;;;;;;1.10;0.93;;;22.70;47.30;;;;;;4780629;29;20083;-69
2021/09/04 05:23:42;;;;;;;1.55;1.35;;;22.70;47.40;;;;;;4774583;29;20472;-70
2021/09/04 05:26:10;;;;;;;1.23;1.13;;;22.60;47.50;;;;;;4781948;29;20134;-70
2021/09/04 05:28:38;;;;;;;1.40;1.30;;;22.40;47.60;;;;;;4781716;29;20086;-70
2021/09/04 05:31:05;;;;;;;1.05;1.05;;;22.30;47.90;;;;;;4784472;29;20639;-69
2021/09/04 05:33:32;;;;;;;0.95;0.95;;;22.20;48.10;;;;;;4773132;29;20067;-69
2021/09/04 05:35:59;;;;;;;0.85;0.85;;;22.10;48.40;;;;;;4782289;29;20059;-70
2021/09/04 05:38:26;;;;;;;0.90;0.90;;;21.90;48.50;;;;;;4782493;29;20079;-69
2021/09/04 05:40:53;;;;;;;1.38;1.27;;;21.80;48.80;;;;;;4782328;29;20494;-70
2021/09/04 05:43:20;;;;;;;1.42;1.33;;;21.70;49.00;;;;;;4771025;29;20069;-69
2021/09/04 05:45:48;;;;;;;1.30;1.20;;;21.60;49.20;;;;;;4781169;29;20082;-69
2021/09/04 05:48:15;;;;;;;1.23;1.13;;;21.50;49.50;;;;;;4782129;29;20085;-69
2021/09/04 05:50:42;;;;;;;1.83;1.15;;;21.40;49.60;;;;;;4782087;29;20055;-70
2021/09/04 05:53:10;;;;;;;1.10;1.10;;;21.30;49.80;;;;;;4770824;29;20541;-69
2021/09/04 05:55:37;;;;;;;1.20;1.10;;;21.20;50.00;;;;;;4782036;29;20051;-69
2021/09/04 05:58:05;;;;;;;1.42;1.33;;;21.10;50.20;;;;;;4781856;29;20055;-70
2021/09/04 06:00:32;;;;;;;1.40;1.30;;;21.00;50.40;;;;;;4796077;29;20143;-69
2021/09/04 06:02:59;;;;;;;1.38;1.10;;;21.00;50.60;;;;;;4771011;29;20089;-69
2021/09/04 06:05:27;;;;;;;1.40;1.30;;;20.90;50.70;;;;;;4781986;29;20517;-69
2021/09/04 06:07:54;;;;;;;1.35;1.23;;;20.80;50.90;;;;;;4782181;29;20047;-70
2021/09/04 06:10:22;;;;;;;2.17;1.45;;;20.80;51.10;;;;;;4782464;29;20201;-70
2021/09/04 06:12:49;;;;;;;1.33;1.23;;;20.70;51.20;;;;;;4774403;29;20055;-70
2021/09/04 06:15:16;;;;;;;1.08;1.08;;;20.70;51.30;;;;;;4785381;29;20141;-70
2021/09/04 06:17:43;;;;;;;1.40;1.15;;;20.60;51.50;;;;;;4784252;30;20577;-69
2021/09/04 06:20:10;;;;;;;1.50;1.17;;;20.60;51.60;;;;;;4785161;29;20090;-70
2021/09/04 06:22:37;;;;;;;1.50;1.40;;;20.60;51.80;;;;;;4774620;29;20146;-69
2021/09/04 06:25:05;;;;;;;1.17;1.15;;;20.50;51.90;;;;;;4785147;29;20138;-70
2021/09/04 06:27:33;;;;;;;1.60;1.50;;;20.50;52.00;;;;;;4784962;29;20179;-70
2021/09/04 06:30:01;;;;;;;2.13;1.30;;;20.40;52.00;;;;;;4785156;29;20087;-70
2021/09/04 06:32:28;;;;;;;1.65;1.55;;;20.40;52.10;;;;;;4775864;29;20142;-69
2021/09/04 06:34:55;;;;;;;1.17;1.17;;;20.40;52.30;;;;;;4783339;30;20070;-70
2021/09/04 06:37:22;;;;;;;1.77;1.40;;;20.30;52.30;;;;;;4783628;29;20417;-70
2021/09/04 06:39:50;;;;;;;1.48;1.38;;;20.30;52.40;;;;;;4785070;29;20065;-70
2021/09/04 06:42:17;;;;;;;1.58;1.48;;;20.30;52.50;;;;;;4777583;29;20514;-69
2021/09/04 06:44:44;;;;;;;1.58;1.33;;;20.30;52.60;;;;;;4781441;29;20154;-69
2021/09/04 06:47:11;;;;;;;1.85;1.52;;;20.30;52.70;;;;;;4784309;29;20051;-70
2021/09/04 06:49:38;;;;;;;1.35;1.25;;;20.30;52.80;;;;;;4782477;29;20582;-69
2021/09/04 06:52:05;;;;;;;1.33;1.23;;;20.30;52.80;;;;;;4776838;29;20059;-69
2021/09/04 06:54:33;;;;;;;1.63;1.52;;;20.20;52.80;;;;;;4780829;29;20052;-70
2021/09/04 06:57:02;;;;;;;1.45;1.35;;;20.20;52.90;;;;;;4784662;29;20062;-70
2021/09/04 06:59:29;;;;;;;3.15;1.33;;;20.20;53.00;;;;;;4784975;29;20090;-70
2021/09/04 07:01:56;;;;;;;1.58;1.48;;;20.20;53.00;;;;;;4775427;29;20146;-69
2021/09/04 07:04:24;;;;;;;1.17;1.15;;;20.20;53.10;;;;;;4780133;29;20055;-69
2021/09/04 07:06:51;;;;;;;1.52;1.42;;;20.20;53.10;;;;;;4784713;29;20669;-70
2021/09/04 07:09:18;;;;;;;1.67;1.58;;;20.20;53.10;;;;;;4784320;29;20055;-70
2021/09/04 07:11:45;;;;;;;1.67;1.58;;;20.20;53.20;;;;;;4779766;29;20051;-69
2021/09/04 07:14:13;;;;;;;1.70;1.60;;;20.20;53.20;;;;;;4777531;30;20541;-69
2021/09/04 07:16:40;;;;;;;1.60;1.50;;;20.20;53.30;;;;;;4784485;29;20056;-69
2021/09/04 07:19:07;;;;;;;1.58;1.48;;;20.20;53.30;;;;;;4784373;29;20391;-69
2021/09/04 07:21:34;;;;;;;2.15;1.70;;;20.20;53.30;;;;;;4779109;29;20051;-69
2021/09/04 07:24:01;;;;;;;1.73;1.63;;;20.30;53.30;;;;;;4777517;29;20084;-70
2021/09/04 07:26:28;;;;;;;1.52;1.42;;;20.30;53.30;;;;;;4783958;29;20055;-69
2021/09/04 07:28:55;;;;;;;1.70;1.60;;;20.30;53.30;;;;;;4784097;29;20413;-70
2021/09/04 07:31:22;;;;;;;1.70;1.60;;;20.30;53.30;;;;;;4778500;29;20141;-68
2021/09/04 07:33:49;;;;;;;1.77;1.60;;;20.30;53.20;;;;;;4777304;29;20098;-68
2021/09/04 07:36:17;;;;;;;1.92;1.70;;;20.40;53.20;;;;;;4782889;29;20526;-69
2021/09/04 07:38:45;;;;;;;1.70;1.60;;;20.40;53.20;;;;;;4783924;29;20051;-69
2021/09/04 07:41:13;;;;;;;1.52;1.40;;;20.40;53.20;;;;;;4782169;29;20134;-69
2021/09/04 07:43:40;;;;;;;1.65;1.55;;;20.40;53.20;;;;;;4776882;29;20422;-69
2021/09/04 07:46:07;;;;;;;1.85;1.70;;;20.40;53.20;;;;;;4784205;29;20063;-69
2021/09/04 07:48:34;;;;;;;1.70;1.60;;;20.40;53.30;;;;;;4782677;29;20057;-69
2021/09/04 07:51:01;;;;;;;2.00;1.80;;;20.40;53.30;;;;;;4780722;29;20239;-70
2021/09/04 07:53:32;;;;;;;1.83;1.52;;;20.40;53.30;;;;;;4772444;30;20563;-69
2021/09/04 07:55:59;;;;;;;2.08;1.88;;;20.40;53.30;;;;;;4781561;29;20047;-69
2021/09/04 07:58:26;;;;;;;2.13;1.83;;;20.40;53.30;;;;;;4780138;30;20085;-71
2021/09/04 08:00:53;;;;;;;1.65;1.50;;;20.40;53.30;;;;;;4783656;29;20135;-70
2021/09/04 08:03:21;;;;;;;1.73;1.63;;;20.50;53.40;;;;;;4771257;29;20110;-70
2021/09/04 08:05:48;;;;;;;2.08;1.88;;;20.50;53.40;;;;;;4783201;29;20733;-70
2021/09/04 08:08:15;;;;;;;1.90;1.73;;;20.50;53.40;;;;;;4783595;29;20454;-71
2021/09/04 08:10:44;;;;;;;2.58;2.10;;;20.50;53.40;;;;;;4783492;29;20089;-70
2021/09/04 08:13:12;;;;;;;2.15;1.83;;;20.50;53.40;;;;;;4772138;29;20505;-71
2021/09/04 08:15:39;;;;;;;1.35;1.25;;;20.50;53.90;;;;;;4783388;29;20413;-70
2021/09/04 08:18:07;;;;;;;2.15;1.75;;;20.50;53.30;;;;;;4783384;29;20065;-70
2021/09/04 08:20:34;;;;;;;1.83;1.70;;;20.50;53.30;;;;;;4782997;29;20130;-70
2021/09/04 08:23:06;;;;;;;2.03;1.67;;;20.50;53.40;;;;;;4771327;29;20146;-70
2021/09/04 08:25:36;;;;;;;1.70;1.60;;;20.50;53.40;;;;;;4783170;29;20452;-70
2021/09/04 08:28:07;;;;;;;2.00;1.80;;;20.50;53.40;;;;;;4783150;30;20047;-70
2021/09/04 08:30:36;;;;;;;2.00;1.83;;;20.50;53.30;;;;;;4782976;29;20154;-70
2021/09/04 08:33:03;;;;;;;2.17;1.98;;;20.50;53.30;;;;;;4769396;29;20051;-70
2021/09/04 08:35:30;;;;;;;1.70;1.60;;;20.50;53.30;;;;;;4781702;30;20094;-71
2021/09/04 08:37:59;;;;;;;1.77;1.67;;;20.50;53.30;;;;;;4783122;29;20420;-70
2021/09/04 08:40:26;;;;;;;2.13;1.70;;;20.60;53.30;;;;;;4781656;30;20059;-70
2021/09/04 08:42:53;;;;;;;1.90;1.67;;;20.50;53.20;;;;;;4771699;29;20090;-70
2021/09/04 08:45:20;;;;;;;1.70;1.60;;;20.60;53.20;;;;;;4780813;29;20057;-71
2021/09/04 08:47:49;;;;;;;2.22;2.03;;;20.60;53.20;;;;;;4780895;29;20044;-70
2021/09/04 08:50:17;;;;;;;2.40;1.98;;;20.60;53.10;;;;;;4780514;29;20516;-69
2021/09/04 08:52:44;;;;;;;1.88;1.77;;;20.60;53.00;;;;;;4771191;29;20055;-69
2021/09/04 08:55:11;;;;;;;1.77;1.67;;;20.60;53.00;;;;;;4780657;29;20058;-69
2021/09/04 08:57:38;;;;;;;1.88;1.77;;;20.60;53.00;;;;;;4780551;29;20048;-72
2021/09/04 09:00:06;;;;;;;2.53;2.20;;;20.60;52.90;;;;;;4780527;29;20498;-68
2021/09/04 09:02:34;;;;;;;1.73;1.63;;;20.60;52.80;;;;;;4771845;29;20559;-70
2021/09/04 09:05:06;;;;;;;2.58;2.13;;;20.70;52.80;;;;;;4779347;29;20059;-70
2021/09/04 09:07:47;;;;;;;1.95;1.70;;;20.60;52.70;;;;;;4780914;29;20053;-71
2021/09/04 09:10:32;;;;;;;2.47;1.77;;;20.70;52.70;;;;;;4780405;29;20051;-71
2021/09/04 09:13:00;;;;;;;1.77;1.67;;;20.70;52.70;;;;;;4773123;29;20388;-71
2021/09/04 09:15:29;;;;;;;2.22;1.95;;;20.70;52.60;;;;;;4780719;29;20090;-71
2021/09/04 09:18:07;;;;;;;3.03;2.73;;;20.70;52.50;;;;;;4780634;29;20542;-71
2021/09/04 09:20:35;;;;;;;1.83;1.70;;;20.70;52.40;;;;;;4780011;29;20158;-71
2021/09/04 09:23:11;;;;;;;1.70;1.60;;;20.70;52.30;;;;;;4771924;29;20468;-70
2021/09/04 09:25:40;;;;;;;1.90;1.75;;;20.80;52.30;;;;;;4782697;29;20142;-71
2021/09/04 09:28:12;;;;;;;1.75;1.65;;;20.80;52.30;;;;;;4782253;29;20051;-71
2021/09/04 09:30:45;;;;;;;1.73;1.58;;;20.80;52.20;;;;;;4782450;29;20055;-71
2021/09/04 09:33:16;;;;;;;2.15;1.95;;;20.80;52.10;;;;;;4772536;29;20059;-70
2021/09/04 09:35:51;;;;;;;1.73;1.63;;;20.80;52.00;;;;;;4782296;29;20134;-71
2021/09/04 09:38:22;;;;;;;1.77;1.67;;;20.80;51.90;;;;;;4782536;29;20062;-71
2021/09/04 09:40:55;;;;;;;;;;;20.80;51.80;;;;;;4782672;29;20588;-71
2021/09/04 09:43:38;;;;;;;2.20;2.00;;;20.90;51.80;;;;;;4771354;29;19925;-71
2021/09/04 09:46:08;;;;;;;2.20;1.80;;;20.90;51.70;;;;;;4784989;29;20058;-70
2021/09/04 09:48:37;;;;;;;1.80;1.70;;;20.90;51.60;;;;;;4786055;29;20474;-70
2021/09/04 09:51:06;;;;;;;2.00;1.83;;;20.90;51.50;;;;;;4784061;29;20090;-70
2021/09/04 09:53:33;;;;;;;2.22;1.73;;;20.90;51.50;;;;;;4775695;29;20468;-71
2021/09/04 09:56:01;;;;;;;1.60;1.50;;;20.90;51.40;;;;;;4786149;29;20063;-71
2021/09/04 09:58:29;;;;;;;2.22;1.73;;;20.90;51.30;;;;;;4785919;29;20473;-71
2021/09/04 10:00:57;;;;;;;1.85;1.70;;;20.90;51.30;;;;;;4785518;29;20593;-70
2021/09/04 10:03:27;;;;;;;2.15;1.77;;;20.90;51.20;;;;;;4773985;29;20463;-70
2021/09/04 10:05:56;;;;;;;1.70;1.52;;;21.00;51.20;;;;;;4785149;29;20055;-71
2021/09/04 10:08:25;;;;;;;1.65;1.55;;;21.00;51.10;;;;;;4785292;29;20055;-71
2021/09/04 10:10:53;;;;;;;1.60;1.50;;;21.00;51.10;;;;;;4785403;29;20112;-70
2021/09/04 10:13:20;;;;;;;1.90;1.70;;;21.00;51.10;;;;;;4774971;29;20055;-71
2021/09/04 10:15:51;;;;;;;1.83;1.70;;;21.00;51.00;;;;;;4785335;29;20730;-70
2021/09/04 10:18:23;;;;;;;2.22;1.88;;;21.00;51.00;;;;;;4785516;29;20051;-70
2021/09/04 10:21:12;;;;;;;1.80;1.70;;;21.00;50.90;;;;;;4785132;29;20084;-71
2021/09/04 10:23:49;;;;;;;2.15;1.95;;;21.00;50.90;;;;;;4774702;30;20539;-71
2021/09/04 10:26:31;;;;;;;1.60;1.50;;;21.00;50.80;;;;;;4785042;29;20051;-70
2021/09/04 10:29:12;;;;;;;1.75;1.60;;;21.00;50.80;;;;;;4785301;29;20055;-70
2021/09/04 10:31:56;;;;;;;1.42;1.33;;;21.00;50.80;;;;;;4780152;29;20063;-71
2021/09/04 10:34:35;;;;;;;1.60;1.50;;;21.10;50.70;;;;;;4782273;29;20055;-70
2021/09/04 10:37:14;;;;;;;1.77;1.65;;;21.10;50.60;;;;;;4785117;29;20135;-71
2021/09/04 10:40:07;;;;;;;1.27;1.23;;;21.10;50.50;;;;;;4785020;29;20526;-70
2021/09/04 10:42:43;;;;;;;2.13;1.95;;;21.10;50.50;;;;;;4775838;29;20047;-70
2021/09/04 10:45:16;;;;;;;1.45;1.35;;;21.10;50.50;;;;;;4784915;29;20142;-71
2021/09/04 10:47:49;;;;;;;1.65;1.55;;;21.10;50.40;;;;;;4784289;29;20052;-70
2021/09/04 10:50:19;;;;;;;1.83;1.67;;;21.20;50.40;;;;;;4784639;29;20510;-70
2021/09/04 10:53:04;;;;;;;1.40;1.30;;;21.20;50.30;;;;;;4774994;29;20141;-70
2021/09/04 10:55:42;;;;;;;2.00;1.70;;;21.20;50.30;;;;;;4785256;29;20059;-71
2021/09/04 10:58:17;;;;;;;1.77;1.67;;;21.20;50.10;;;;;;4783748;29;20112;-70
2021/09/04 11:00:49;;;;;;;1.85;1.75;;;21.20;50.10;;;;;;4784694;29;20086;-70
2021/09/04 11:03:21;;;;;;;1.90;1.70;;;21.20;50.10;;;;;;4773638;29;20473;-70
2021/09/04 11:05:57;;;;;;;1.60;1.50;;;21.30;50.10;;;;;;4783669;29;20323;-70
2021/09/04 11:08:36;;;;;;;1.73;1.60;;;21.30;50.10;;;;;;4782123;29;20116;-70
2021/09/04 11:11:28;;;;;;;1.45;1.35;;;21.30;50.60;;;;;;4781702;29;20083;-69
2021/09/04 11:14:01;;;;;;;2.00;1.70;;;21.30;50.00;;;;;;4777989;29;20091;-71
2021/09/04 11:16:50;;;;;;;1.58;1.42;;;21.30;50.00;;;;;;4782742;29;20440;-70
2021/09/04 11:19:22;;;;;;;1.92;1.83;;;21.30;50.00;;;;;;4782438;29;20048;-71
2021/09/04 11:21:57;;;;;;;1.80;1.70;;;21.30;49.90;;;;;;4777099;29;20138;-71
2021/09/04 11:24:32;;;;;;;1.73;1.48;;;21.30;49.90;;;;;;4779686;29;20262;-71
2021/09/04 11:27:10;;;;;;;2.20;1.77;;;21.30;49.90;;;;;;4782385;29;20062;-70
2021/09/04 11:29:39;;;;;;;1.63;1.52;;;21.40;49.80;;;;;;4782072;29;20059;-71
2021/09/04 11:32:07;;;;;;;1.48;1.38;;;21.40;49.80;;;;;;4776358;29;20592;-70
2021/09/04 11:34:38;;;;;;;1.58;1.48;;;21.40;49.80;;;;;;4778622;29;20047;-70
2021/09/04 11:37:32;;;;;;;1.35;1.25;;;21.30;49.70;;;;;;4781742;29;20051;-71
2021/09/04 11:40:18;;;;;;;1.67;1.58;;;21.40;49.80;;;;;;4782602;29;20055;-70
2021/09/04 11:42:48;;;;;;;1.80;1.63;;;21.40;49.70;;;;;;4773971;29;20574;-69
2021/09/04 11:45:19;;;;;;;1.88;1.70;;;21.40;49.70;;;;;;4782107;29;20562;-71
2021/09/04 11:47:48;;;;;;;1.70;1.60;;;21.40;49.70;;;;;;4782327;29;20079;-70
2021/09/04 11:50:23;;;;;;;1.13;1.10;;;21.40;49.60;;;;;;4781816;29;20059;-70
2021/09/04 11:52:50;;;;;;;2.88;1.73;;;21.40;49.60;;;;;;4772919;29;20584;-71
2021/09/04 11:55:27;;;;;;;1.60;1.50;;;21.40;49.60;;;;;;4782272;29;20416;-71
2021/09/04 11:57:56;;;;;;;1.90;1.77;;;21.40;49.50;;;;;;4781043;29;20074;-70
2021/09/04 12:00:26;;;;;;;1.67;1.58;;;21.30;49.40;;;;;;4781550;29;20418;-70
2021/09/04 12:03:05;;;;;;;1.38;1.27;;;21.40;49.50;;;;;;4772401;29;20079;-70
2021/09/04 12:05:35;;;;;;;1.40;1.30;;;21.40;49.40;;;;;;4781301;29;20055;-70
2021/09/04 12:08:08;;;;;;;1.88;1.23;;;21.40;49.30;;;;;;4782171;29;20094;-70
2021/09/04 12:10:38;;;;;;;1.60;1.50;;;21.40;49.30;;;;;;4781797;29;20309;-70
2021/09/04 12:13:08;;;;;;;1.38;1.27;;;21.40;49.30;;;;;;4772496;29;20102;-70
2021/09/04 12:15:37;;;;;;;1.58;1.48;;;21.40;49.20;;;;;;4781555;29;20156;-70
2021/09/04 12:18:07;;;;;;;1.95;1.75;;;21.40;49.20;;;;;;4780379;29;20059;-70
2021/09/04 12:20:39;;;;;;;2.47;1.90;;;21.40;49.10;;;;;;4780026;30;20083;-70
2021/09/04 12:23:19;;;;;;;1.70;1.60;;;21.40;49.10;;;;;;4772145;29;20055;-69
2021/09/04 12:26:04;;;;;;;1.45;1.35;;;21.40;49.20;;;;;;4781373;29;20075;-71
2021/09/04 12:28:32;;;;;;;1.58;1.48;;;21.40;49.30;;;;;;4781860;29;20151;-70
2021/09/04 12:31:09;;;;;;;1.50;1.40;;;21.30;49.20;;;;;;4781248;29;20525;-71
2021/09/04 12:33:57;;;;;;;1.55;1.45;;;21.40;49.30;;;;;;4774152;30;20120;-70
2021/09/04 12:36:35;;;;;;;1.55;1.45;;;21.30;49.20;;;;;;4782894;29;20600;-70
2021/09/04 12:39:13;;;;;;;1.67;1.45;;;21.30;49.20;;;;;;4783255;29;20051;-70
2021/09/04 12:41:41;;;;;;;1.50;1.40;;;21.30;49.20;;;;;;4777151;29;20070;-70
2021/09/04 12:44:14;;;;;;;1.42;1.20;;;21.30;49.20;;;;;;4777735;29;20082;-70
2021/09/04 12:46:49;;;;;;;1.50;1.40;;;21.30;49.30;;;;;;4782648;29;20505;-70
2021/09/04 12:49:28;;;;;;;1.65;1.55;;;21.20;49.30;;;;;;4782641;29;20506;-70
2021/09/04 12:52:03;;;;;;;2.10;2.00;;;21.30;49.40;;;;;;4775394;29;20073;-69
2021/09/04 12:54:44;;;;;;;1.60;1.50;;;21.20;49.40;;;;;;4780178;29;20088;-70
2021/09/04 12:57:30;;;;;;;1.30;1.20;;;21.20;49.50;;;;;;4782573;29;20101;-70
2021/09/04 12:59:59;;;;;;;1.50;1.40;;;21.20;49.40;;;;;;4782710;29;20091;-70